Time;durP1;ratioP1;P1;durP2;ratioP2;P2;SDS_P1;SDS_P2;PMS_P1;PMS_P2;Temp;Humidity;BMP_temperature;BMP_pressure;BME280_temperature;BME280_humidity;BME280_pressure;Samples;Min_cycle;Max_cycle;Signal;HPM_P1;HPM_P2
2022/01/13 00:02:21;;;;;;;45.28;14.95;;;;;;;1.31;96.37;104092.63;5029096;28;20032;-72
2022/01/13 00:04:47;;;;;;;49.60;13.63;;;;;;;1.32;96.54;104094.41;5027760;28;20021;-72
2022/01/13 00:07:13;;;;;;;47.38;15.95;;;;;;;1.30;96.35;104104.19;5027067;28;20116;-73
2022/01/13 00:09:39;;;;;;;47.38;15.48;;;;;;;1.27;96.38;104097.91;5018305;28;20365;-72
2022/01/13 00:12:07;;;;;;;43.25;14.73;;;;;;;1.31;96.60;104097.97;5015795;28;20080;-73
2022/01/13 00:19:47;;;;;;;40.35;12.35;;;;;;;1.33;96.42;104098.91;5027674;28;20071;-71
2022/01/13 00:24:59;;;;;;;47.67;13.38;;;;;;;1.31;96.25;104106.03;5020804;28;20029;-74
2022/01/13 00:27:28;;;;;;;46.33;14.35;;;;;;;1.27;96.37;104099.69;5015312;28;20030;-72
2022/01/13 00:29:55;;;;;;;45.67;13.55;;;;;;;1.26;96.45;104104.16;5010166;28;20032;-72
2022/01/13 00:32:23;;;;;;;46.63;12.95;;;;;;;1.20;96.39;104101.34;5026896;28;20432;-73
2022/01/13 00:34:48;;;;;;;53.05;13.65;;;;;;;1.21;96.55;104105.84;5025913;28;20087;-73
2022/01/13 00:37:13;;;;;;;44.80;13.52;;;;;;;1.19;96.44;104104.00;5013610;28;20481;-73
2022/01/13 00:39:39;;;;;;;43.83;13.77;;;;;;;1.17;96.77;104098.63;5024343;28;20025;-73
2022/01/13 00:42:04;;;;;;;38.38;13.60;;;;;;;1.19;96.72;104102.22;5021505;28;20100;-73
2022/01/13 00:44:35;;;;;;;36.13;13.40;;;;;;;1.21;96.45;104104.91;5007181;28;20032;-73
2022/01/13 00:47:01;;;;;;;36.97;12.52;;;;;;;1.19;96.47;104091.50;5024600;28;20021;-73
2022/01/13 00:49:27;;;;;;;48.63;15.10;;;;;;;1.25;96.63;104094.28;5024639;28;20064;-72
2022/01/13 00:51:53;;;;;;;45.92;13.80;;;;;;;1.19;96.75;104088.81;5026429;28;20492;-73
2022/01/13 00:54:18;;;;;;;40.17;13.82;;;;;;;1.18;96.82;104088.78;5026815;28;20045;-73
2022/01/13 00:56:44;;;;;;;42.20;12.57;;;;;;;1.18;96.76;104089.69;5017087;28;20083;-74
2022/01/13 00:59:14;;;;;;;32.60;11.57;;;;;;;1.17;96.77;104081.63;5019590;28;20032;-73
2022/01/13 01:01:42;;;;;;;34.88;12.43;;;;;;;1.20;96.83;104081.66;5017248;28;20026;-73
2022/01/13 01:04:08;;;;;;;28.95;12.05;;;;;;;1.19;96.54;104077.19;5025186;28;20014;-73
2022/01/13 01:06:34;;;;;;;44.10;13.10;;;;;;;1.16;96.28;104074.44;5025609;28;20359;-74
2022/01/13 01:09:00;;;;;;;29.58;11.30;;;;;;;1.14;96.38;104071.75;5026419;28;20032;-74
2022/01/13 01:11:26;;;;;;;34.85;12.90;;;;;;;1.17;96.47;104078.94;5008119;28;20486;-72
2022/01/13 01:13:53;;;;;;;36.88;12.05;;;;;;;1.13;96.39;104080.66;5013908;28;20065;-74
2022/01/13 01:16:19;;;;;;;38.63;11.93;;;;;;;1.12;96.61;104080.63;5021425;28;20029;-73
2022/01/13 01:28:48;;;;;;;31.40;11.77;;;;;;;1.08;96.76;104095.75;5022097;28;20045;-73
2022/01/13 01:31:15;;;;;;;36.20;12.85;;;;;;;1.07;96.85;104091.25;5020610;28;20104;-74
2022/01/13 01:33:48;;;;;;;34.78;11.95;;;;;;;1.10;96.35;104085.97;5021981;28;20743;-73
2022/01/13 01:36:15;;;;;;;32.22;11.70;;;;;;;1.13;96.74;104085.13;5019629;28;20061;-73
2022/01/13 01:38:45;;;;;;;40.47;12.43;;;;;;;1.14;96.46;104082.47;5021586;28;20017;-73
2022/01/13 01:41:10;;;;;;;35.13;13.75;;;;;;;1.11;96.60;104076.13;5021161;28;20440;-74
2022/01/13 01:43:35;;;;;;;46.88;12.77;;;;;;;1.11;96.60;104073.44;5005821;28;20026;-74
2022/01/13 01:46:01;;;;;;;38.20;12.88;;;;;;;1.07;96.65;104072.47;5018973;28;20036;-73
2022/01/13 01:48:28;;;;;;;59.47;14.43;;;;;;;1.07;96.45;104077.84;5020782;28;20030;-74
2022/01/13 01:50:58;;;;;;;40.25;13.10;;;;;;;1.05;96.73;104071.56;5024224;28;20040;-72
2022/01/13 01:53:23;;;;;;;44.47;12.98;;;;;;;1.03;96.82;104062.59;5020210;28;20060;-73
2022/01/13 01:55:49;;;;;;;38.70;12.70;;;;;;;1.05;96.55;104070.66;5034038;28;20018;-73
2022/01/13 01:58:14;;;;;;;40.65;13.00;;;;;;;1.05;96.74;104070.66;5032019;28;20037;-74
2022/01/13 02:00:39;;;;;;;42.20;14.48;;;;;;;1.03;96.85;104070.66;5024757;28;20053;-73
2022/01/13 02:03:05;;;;;;;37.70;12.38;;;;;;;1.01;96.92;104067.91;5028590;28;20088;-74
2022/01/13 02:05:31;;;;;;;38.92;12.85;;;;;;;1.01;97.12;104070.59;5012557;28;20029;-74
2022/01/13 02:07:56;;;;;;;36.47;12.05;;;;;;;1.00;96.82;104079.53;5014038;28;20026;-73
2022/01/13 02:10:22;;;;;;;35.47;11.95;;;;;;;1.02;96.84;104075.06;5015834;28;20778;-75
2022/01/13 02:12:51;;;;;;;46.58;12.63;;;;;;;1.01;97.04;104067.00;5008962;28;20036;-73
2022/01/13 02:15:29;;;;;;;32.13;11.27;;;;;;;1.02;96.94;104071.50;5023702;28;20363;-74
2022/01/13 02:17:56;;;;;;;31.98;11.73;;;;;;;1.03;96.83;104070.66;5027392;28;20029;-74
2022/01/13 02:20:21;;;;;;;36.47;12.35;;;;;;;1.05;96.44;104089.44;5028900;28;20017;-74
2022/01/13 02:22:47;;;;;;;37.00;10.45;;;;;;;1.01;96.49;104086.69;5016586;28;20033;-74
2022/01/13 02:25:14;;;;;;;29.63;11.10;;;;;;;0.96;96.50;104080.31;5028681;28;20397;-74
2022/01/13 02:27:40;;;;;;;36.78;11.63;;;;;;;0.92;96.80;104083.81;5022168;28;20034;-74
2022/01/13 02:30:06;;;;;;;36.40;11.65;;;;;;;0.89;96.68;104081.09;5019749;28;20433;-74
2022/01/13 02:32:31;;;;;;;31.38;12.02;;;;;;;0.87;96.92;104079.25;5029985;28;20037;-74
2022/01/13 02:34:56;;;;;;;29.17;9.93;;;;;;;0.83;96.51;104070.22;5026266;28;20100;-73
2022/01/13 02:37:21;;;;;;;33.95;11.02;;;;;;;0.84;96.81;104072.06;5022259;28;20496;-74
2022/01/13 02:39:47;;;;;;;29.30;11.35;;;;;;;0.85;96.90;104076.53;5027982;28;20049;-73
2022/01/13 02:42:13;;;;;;;30.92;10.23;;;;;;;0.85;96.92;104078.31;5020363;28;20034;-74
2022/01/13 02:44:50;;;;;;;34.20;10.65;;;;;;;0.85;96.93;104079.22;5012547;28;20443;-73
2022/01/13 02:47:36;;;;;;;39.10;11.95;;;;;;;0.84;97.08;104074.75;5030635;28;20029;-73
2022/01/13 02:50:03;;;;;;;29.67;10.70;;;;;;;0.84;96.93;104080.09;5028427;28;20111;-73
2022/01/13 02:52:29;;;;;;;40.28;10.48;;;;;;;0.85;97.04;104081.91;5030877;28;20029;-73
2022/01/13 02:54:54;;;;;;;36.70;10.23;;;;;;;0.85;96.94;104081.00;5027371;28;20447;-73
2022/01/13 02:57:19;;;;;;;35.30;11.20;;;;;;;0.84;96.76;104079.16;5010387;28;20025;-73
2022/01/13 02:59:45;;;;;;;30.52;11.30;;;;;;;0.82;96.90;104079.16;5036332;28;20056;-73
2022/01/13 03:02:10;;;;;;;36.58;9.80;;;;;;;0.84;96.91;104077.44;5030020;28;20027;-74
2022/01/13 03:04:35;;;;;;;29.92;10.13;;;;;;;0.88;97.05;104081.03;5021513;28;20057;-74
2022/01/13 03:07:01;;;;;;;35.50;10.90;;;;;;;0.88;97.10;104078.38;5022808;28;20551;-74
2022/01/13 03:09:26;;;;;;;31.58;11.45;;;;;;;0.89;96.94;104077.53;5029208;28;20021;-74
2022/01/13 03:11:51;;;;;;;44.28;10.00;;;;;;;0.88;96.99;104071.22;5011089;28;20025;-74
2022/01/13 03:14:17;;;;;;;48.10;10.75;;;;;;;0.87;96.98;104066.75;5020904;28;20037;-74
2022/01/13 03:16:44;;;;;;;39.55;10.20;;;;;;;0.85;96.84;104068.50;5030064;28;20493;-74
2022/01/13 03:19:10;;;;;;;26.73;9.55;;;;;;;0.87;96.86;104069.44;5029661;28;20060;-73
2022/01/13 03:21:36;;;;;;;38.28;10.90;;;;;;;0.87;96.88;104071.19;5023555;28;20038;-74
2022/01/13 03:24:06;;;;;;;28.70;9.77;;;;;;;0.86;96.82;104075.66;5030366;28;20108;-74
2022/01/13 03:26:32;;;;;;;29.85;9.98;;;;;;;0.90;97.04;104068.59;5023135;28;20034;-74
2022/01/13 03:29:15;;;;;;;39.45;11.07;;;;;;;0.90;97.06;104066.81;5016137;28;20037;-74
2022/01/13 03:31:45;;;;;;;31.70;9.75;;;;;;;0.93;96.95;104068.63;5027017;28;20029;-74
2022/01/13 03:34:13;;;;;;;30.95;10.10;;;;;;;0.95;97.04;104070.50;5029389;28;20034;-74
2022/01/13 03:36:39;;;;;;;37.97;11.10;;;;;;;0.97;96.78;104057.09;5014370;28;20052;-74
2022/01/13 03:39:06;;;;;;;32.75;11.10;;;;;;;0.95;96.82;104054.41;5027232;28;20094;-74
2022/01/13 03:41:33;;;;;;;49.05;12.13;;;;;;;0.95;96.78;104056.19;5022221;28;20030;-73
2022/01/13 03:44:05;;;;;;;32.55;10.88;;;;;;;0.91;96.58;104047.19;5008362;28;20033;-74
2022/01/13 03:46:30;;;;;;;44.40;10.43;;;;;;;0.89;96.85;104046.25;5037675;28;20022;-73
2022/01/13 03:48:55;;;;;;;37.53;11.35;;;;;;;0.90;97.04;104044.47;5027372;28;20033;-75
2022/01/13 03:51:21;;;;;;;39.88;11.18;;;;;;;0.93;97.10;104047.19;5017083;28;20022;-74
2022/01/13 03:54:33;;;;;;;36.88;11.30;;;;;;;0.91;96.94;104049.84;5026116;28;20053;-74
2022/01/13 03:57:10;;;;;;;55.87;11.00;;;;;;;0.90;97.07;104037.34;5010382;28;20758;-73
2022/01/13 04:00:14;;;;;;;38.58;12.20;;;;;;;0.92;97.09;104046.28;5019114;28;20504;-74
2022/01/13 04:02:40;;;;;;;41.28;12.30;;;;;;;0.91;97.07;104047.19;5011855;28;20025;-74
2022/01/13 04:05:05;;;;;;;54.17;12.65;;;;;;;0.90;96.99;104047.16;5029568;28;20033;-74
2022/01/13 04:07:30;;;;;;;50.88;11.90;;;;;;;0.91;97.15;104046.28;5024929;28;20485;-73
2022/01/13 04:09:55;;;;;;;37.22;12.80;;;;;;;0.91;97.07;104046.28;5028987;28;20152;-73
2022/01/13 04:12:23;;;;;;;56.47;14.10;;;;;;;0.91;nan;104051.63;5025350;28;20032;-74
2022/01/13 04:14:54;;;;;;;38.95;12.45;;;;;;;0.91;97.06;104038.22;5026058;28;20299;-74
2022/01/13 04:17:21;;;;;;;46.72;11.75;;;;;;;0.90;97.28;104044.47;5028829;28;20028;-75
2022/01/13 04:19:47;;;;;;;38.95;13.38;;;;;;;0.89;nan;104038.22;5021996;28;20085;-74
2022/01/13 04:22:14;;;;;;;43.08;12.48;;;;;;;0.89;97.04;104038.22;5028210;28;20029;-74
2022/01/13 04:24:45;;;;;;;43.47;12.75;;;;;;;0.88;97.10;104044.41;5021579;28;20030;-73
2022/01/13 04:27:12;;;;;;;46.28;12.52;;;;;;;0.88;97.22;104046.19;5013301;28;20029;-74
2022/01/13 04:29:41;;;;;;;49.10;13.15;;;;;;;0.88;97.29;104046.19;5018476;28;20029;-73
2022/01/13 04:32:07;;;;;;;50.72;13.48;;;;;;;0.90;97.22;104040.00;5028357;28;20035;-74
2022/01/13 04:34:33;;;;;;;48.03;13.85;;;;;;;0.89;97.15;104031.97;5028884;28;20017;-74
2022/01/13 04:37:00;;;;;;;45.80;13.63;;;;;;;0.89;97.11;104032.84;5021492;28;20036;-74
2022/01/13 04:39:27;;;;;;;42.42;13.88;;;;;;;0.88;97.27;104032.81;5026833;28;20041;-74
2022/01/13 04:41:54;;;;;;;47.97;14.02;;;;;;;0.85;97.43;104028.31;5021839;28;20079;-74
2022/01/13 04:44:21;;;;;;;62.75;14.70;;;;;;;0.86;97.37;104026.53;5010415;28;20030;-74
2022/01/13 04:46:48;;;;;;;50.63;13.73;;;;;;;0.83;97.30;104029.13;5028115;28;20025;-73
2022/01/13 04:49:13;;;;;;;46.97;14.07;;;;;;;0.82;97.47;104044.31;5027846;28;20120;-73
2022/01/13 04:51:40;;;;;;;47.55;13.90;;;;;;;0.80;97.32;104027.31;5026039;28;20100;-74
2022/01/13 04:54:07;;;;;;;61.40;13.25;;;;;;;0.79;97.44;104024.59;5024319;28;20447;-74
2022/01/13 04:56:42;;;;;;;55.53;13.05;;;;;;;0.78;97.33;104029.03;5025813;28;20108;-73
2022/01/13 04:59:08;;;;;;;56.58;14.57;;;;;;;0.75;97.29;104024.53;5013878;28;20075;-73
2022/01/13 05:01:34;;;;;;;59.38;14.45;;;;;;;0.72;97.42;104032.50;5028306;28;20041;-73
2022/01/13 05:04:00;;;;;;;56.70;13.73;;;;;;;0.70;97.58;104027.97;5027496;28;20104;-74
2022/01/13 05:06:25;;;;;;;53.67;14.43;;;;;;;0.69;97.65;104029.75;5024629;28;20492;-73
2022/01/13 05:08:51;;;;;;;43.88;13.60;;;;;;;0.70;97.61;104027.97;5027932;28;20033;-73
2022/01/13 05:11:18;;;;;;;44.83;14.05;;;;;;;0.70;97.75;104036.03;5021476;28;20024;-74
2022/01/13 05:13:44;;;;;;;56.33;13.27;;;;;;;0.72;97.74;104045.00;5007166;28;20525;-73
2022/01/13 05:16:19;;;;;;;44.60;13.43;;;;;;;0.71;97.75;104037.84;5037236;28;20025;-74
2022/01/13 05:19:07;;;;;;;75.53;15.15;;;;;;;0.69;97.65;104035.13;5026417;28;20489;-74
2022/01/13 05:24:17;;;;;;;45.97;13.68;;;;;;;0.73;97.62;104041.44;5027858;28;20029;-73
2022/01/13 05:26:42;;;;;;;43.13;13.85;;;;;;;0.75;97.52;104047.75;5022161;28;20462;-74
2022/01/13 05:29:07;;;;;;;51.90;13.43;;;;;;;0.76;97.29;104033.47;5012057;28;20069;-73
2022/01/13 05:31:32;;;;;;;56.40;14.07;;;;;;;0.79;97.64;104040.66;5023902;28;20030;-74
2022/01/13 05:33:58;;;;;;;58.38;15.27;;;;;;;0.82;97.78;104052.34;5022522;28;20351;-74
2022/01/13 05:36:23;;;;;;;55.05;14.63;;;;;;;0.82;97.61;104036.28;5021329;28;20042;-74
2022/01/13 05:38:48;;;;;;;65.35;13.65;;;;;;;0.80;97.57;104030.00;5026529;28;20033;-74
2022/01/13 05:41:13;;;;;;;75.32;15.90;;;;;;;0.80;97.73;104021.06;5022408;28;20385;-74
2022/01/13 05:43:39;;;;;;;67.07;13.57;;;;;;;0.81;97.81;104033.56;5010145;28;20029;-74
2022/01/13 05:46:04;;;;;;;53.35;14.10;;;;;;;0.80;97.73;104037.13;5027447;28;20480;-73
2022/01/13 05:48:31;;;;;;;64.15;13.57;;;;;;;0.75;97.65;104045.97;5026132;28;20064;-73
2022/01/13 05:50:57;;;;;;;73.85;14.73;;;;;;;0.74;97.68;104045.94;5027223;28;20053;-73
2022/01/13 05:53:22;;;;;;;69.47;13.73;;;;;;;0.75;97.68;104043.31;5023236;28;20138;-74
2022/01/13 05:55:47;;;;;;;61.13;14.90;;;;;;;0.76;97.74;104044.19;5020540;28;20030;-74
2022/01/13 05:58:13;;;;;;;61.03;14.93;;;;;;;0.76;97.75;104044.19;5012932;28;20374;-74
2022/01/13 06:00:38;;;;;;;55.67;15.73;;;;;;;0.74;97.66;104037.88;5027977;28;20456;-74
2022/01/13 06:03:04;;;;;;;69.93;15.50;;;;;;;0.76;97.70;104041.53;5031972;28;20509;-75
2022/01/13 06:05:30;;;;;;;53.33;15.23;;;;;;;0.75;97.82;104047.75;5029951;28;20397;-74
2022/01/13 06:07:55;;;;;;;74.70;14.68;;;;;;;0.76;97.74;104045.09;5029465;28;20025;-74
2022/01/13 06:10:21;;;;;;;71.43;15.02;;;;;;;0.76;97.79;104041.53;5021009;28;20022;-74
2022/01/13 06:12:51;;;;;;;55.83;15.00;;;;;;;0.76;97.78;104031.72;5012191;28;20120;-74
2022/01/13 06:15:24;;;;;;;50.55;13.98;;;;;;;0.80;97.79;104030.00;5028088;28;20022;-74
2022/01/13 06:17:52;;;;;;;48.22;14.68;;;;;;;0.81;97.83;104041.63;5030829;28;20025;-74
2022/01/13 06:20:19;;;;;;;67.68;16.55;;;;;;;0.80;97.99;104038.03;5030629;28;20029;-74
2022/01/13 06:22:47;;;;;;;69.97;15.85;;;;;;;0.80;97.86;104024.63;5025582;28;20547;-73
2022/01/13 06:25:14;;;;;;;67.40;15.80;;;;;;;0.80;97.88;104024.63;5029588;28;20838;-73
2022/01/13 06:27:40;;;;;;;105.65;17.08;;;;;;;0.81;97.87;104026.44;5025913;28;20505;-73
2022/01/13 06:30:08;;;;;;;61.88;16.15;;;;;;;0.81;97.87;104030.91;5017378;28;20100;-73
2022/01/13 06:32:34;;;;;;;53.25;14.50;;;;;;;0.81;97.98;104026.44;5030033;28;20033;-74
2022/01/13 06:34:59;;;;;;;59.85;15.90;;;;;;;0.81;97.96;104023.75;5030514;28;20021;-74
2022/01/13 06:37:25;;;;;;;70.00;15.30;;;;;;;0.85;98.17;104030.09;5027914;28;20507;-74
2022/01/13 06:39:50;;;;;;;54.50;14.73;;;;;;;0.88;97.87;104027.44;5029986;28;20037;-74
2022/01/13 06:42:17;;;;;;;66.13;15.10;;;;;;;0.89;97.84;104022.13;5014126;28;20044;-74
2022/01/13 06:44:43;;;;;;;60.55;15.10;;;;;;;0.90;97.86;104025.72;5021960;28;20052;-74
2022/01/13 06:47:08;;;;;;;55.70;14.25;;;;;;;0.88;97.99;104027.44;5022984;28;20061;-74
2022/01/13 06:49:34;;;;;;;47.40;13.02;;;;;;;0.90;97.77;104023.94;5022405;28;20469;-75
2022/01/13 06:52:00;;;;;;;51.40;13.02;;;;;;;0.90;97.80;104018.56;5024794;28;20053;-75
2022/01/13 06:54:25;;;;;;;50.22;13.57;;;;;;;0.91;97.63;104024.84;5025067;28;20889;-74
2022/01/13 06:56:52;;;;;;;53.42;13.30;;;;;;;0.89;97.77;104027.50;5024966;28;20026;-74
2022/01/13 06:59:18;;;;;;;56.47;13.60;;;;;;;0.91;97.59;104024.84;5019135;28;20040;-75
2022/01/13 07:01:44;;;;;;;59.20;13.25;;;;;;;0.89;97.79;104027.50;5009755;28;20398;-74
2022/01/13 07:04:11;;;;;;;39.17;14.88;;;;;;;0.93;97.81;104034.72;5009356;28;20030;-74
2022/01/13 07:06:37;;;;;;;63.33;13.93;;;;;;;0.92;97.75;104032.88;5022922;28;20094;-74
2022/01/13 07:09:06;;;;;;;42.72;12.82;;;;;;;0.95;98.04;104026.69;5010920;28;20014;-75
2022/01/13 07:11:31;;;;;;;59.85;13.40;;;;;;;0.95;97.86;104022.25;5009924;28;20429;-74
2022/01/13 07:13:57;;;;;;;48.00;13.88;;;;;;;0.97;97.90;104027.63;5011716;28;20021;-75
2022/01/13 07:16:22;;;;;;;42.42;13.15;;;;;;;0.97;97.93;104022.25;5010439;28;20075;-73
2022/01/13 07:18:47;;;;;;;44.03;12.95;;;;;;;0.99;97.68;104018.75;5008437;28;20026;-73
2022/01/13 07:21:15;;;;;;;61.80;12.40;;;;;;;0.99;97.81;104020.53;5012248;28;20259;-74
2022/01/13 07:23:40;;;;;;;47.65;12.73;;;;;;;0.98;97.66;104027.66;5009060;28;20025;-74
2022/01/13 07:26:06;;;;;;;53.83;13.50;;;;;;;0.98;98.04;104016.94;5004027;28;20045;-74
2022/01/13 07:28:31;;;;;;;35.78;13.05;;;;;;;0.98;97.70;104029.44;5023832;28;20026;-74
2022/01/13 07:30:58;;;;;;;43.47;12.07;;;;;;;0.99;97.82;104037.50;5014643;28;20022;-74
2022/01/13 07:33:24;;;;;;;47.13;12.30;;;;;;;0.99;97.82;104032.16;5010627;28;20060;-74
2022/01/13 07:35:50;;;;;;;48.72;13.05;;;;;;;1.00;97.92;104025.00;5013074;28;20500;-74
2022/01/13 07:38:16;;;;;;;36.72;13.20;;;;;;;1.01;97.91;104021.44;5009700;28;20033;-74
2022/01/13 07:40:41;;;;;;;52.70;11.95;;;;;;;1.02;97.83;104025.91;5009262;28;20014;-74
2022/01/13 07:43:07;;;;;;;55.13;11.70;;;;;;;1.04;97.82;104031.34;5009088;28;20432;-74
2022/01/13 07:45:32;;;;;;;55.20;12.30;;;;;;;1.01;97.84;104025.03;5009737;28;20044;-74
2022/01/13 07:47:57;;;;;;;41.50;11.45;;;;;;;1.04;97.96;104029.56;5018545;28;20096;-74
2022/01/13 07:50:23;;;;;;;45.45;12.32;;;;;;;1.08;97.88;104033.19;5017892;28;20025;-74
2022/01/13 07:52:48;;;;;;;53.63;12.98;;;;;;;1.06;97.69;104029.56;5008898;28;20421;-73
2022/01/13 07:55:14;;;;;;;47.28;12.60;;;;;;;1.05;97.97;104031.34;5008474;28;20030;-73
2022/01/13 07:57:39;;;;;;;48.50;11.57;;;;;;;1.02;97.92;104034.88;5011684;28;20040;-74
2022/01/13 08:00:07;;;;;;;58.53;12.63;;;;;;;1.06;98.05;104040.28;5021872;28;20061;-73
2022/01/13 08:02:32;;;;;;;65.10;12.02;;;;;;;0.99;98.01;104032.16;5024335;28;20026;-74
2022/01/13 08:04:58;;;;;;;39.95;11.98;;;;;;;1.01;98.18;104038.44;5020740;28;20552;-74
2022/01/13 08:07:23;;;;;;;41.83;11.30;;;;;;;1.04;98.10;104042.06;5028440;28;20504;-74
2022/01/13 08:09:48;;;;;;;37.10;11.98;;;;;;;1.05;98.09;104036.72;5023782;28;20025;-73
2022/01/13 08:12:24;;;;;;;41.13;11.93;;;;;;;1.09;98.15;104051.09;5022501;28;20397;-74
2022/01/13 08:14:58;;;;;;;34.20;10.82;;;;;;;1.08;98.20;104042.16;5006857;28;20076;-74
2022/01/13 08:20:10;;;;;;;53.10;12.07;;;;;;;1.12;98.26;104049.38;5020274;28;20052;-74
2022/01/13 08:22:52;;;;;;;38.15;11.68;;;;;;;1.16;98.26;104053.00;5025296;28;20025;-74
2022/01/13 08:25:27;;;;;;;71.03;12.82;;;;;;;1.16;98.27;104051.22;5025330;28;20042;-74
2022/01/13 08:28:20;;;;;;;55.95;12.70;;;;;;;1.16;98.17;104061.94;5008884;28;20524;-74
2022/01/13 08:30:49;;;;;;;53.55;12.70;;;;;;;1.18;98.18;104061.97;5016035;28;20133;-74
2022/01/13 08:33:22;;;;;;;48.55;11.98;;;;;;;1.17;98.27;104063.75;5022304;28;20036;-74
2022/01/13 08:35:49;;;;;;;44.13;12.57;;;;;;;1.19;98.21;104053.97;5027711;28;20446;-74
2022/01/13 08:38:41;;;;;;;59.15;13.43;;;;;;;1.19;98.47;104059.31;5006370;28;20124;-74
2022/01/13 08:41:07;;;;;;;58.22;12.82;;;;;;;1.19;98.44;104059.31;5011169;28;20091;-74
2022/01/13 08:43:38;;;;;;;51.65;12.52;;;;;;;1.22;98.42;104078.16;5005253;28;20046;-74
2022/01/13 08:46:04;;;;;;;53.95;13.02;;;;;;;1.26;98.51;104065.72;5028819;28;20025;-74
2022/01/13 08:48:34;;;;;;;55.80;11.55;;;;;;;1.32;98.41;104071.19;5021988;28;20504;-74
2022/01/13 08:51:01;;;;;;;42.88;13.25;;;;;;;1.34;98.52;104081.94;5025316;28;20026;-74
2022/01/13 08:53:27;;;;;;;38.20;12.88;;;;;;;1.37;98.37;104076.63;5007774;28;20058;-74
2022/01/13 08:55:55;;;;;;;40.63;12.13;;;;;;;1.38;98.34;104082.00;5014138;28;20056;-74
2022/01/13 08:58:23;;;;;;;45.80;12.55;;;;;;;1.43;98.57;104074.94;5013145;28;20038;-74
2022/01/13 09:00:50;;;;;;;52.00;13.77;;;;;;;1.47;98.26;104071.44;5027442;28;20033;-74
2022/01/13 09:03:15;;;;;;;65.78;13.57;;;;;;;1.50;98.10;104079.56;5021467;28;20650;-74
2022/01/13 09:05:42;;;;;;;47.10;12.60;;;;;;;1.51;98.41;104078.66;5027714;28;20037;-74
2022/01/13 09:08:10;;;;;;;65.97;14.48;;;;;;;1.52;98.09;104084.94;5021017;28;20061;-74
2022/01/13 09:10:38;;;;;;;38.75;11.60;;;;;;;1.55;98.08;104094.84;5012346;28;20440;-75
2022/01/13 09:13:03;;;;;;;42.97;11.15;;;;;;;1.57;97.93;104085.00;5010110;28;20485;-74
2022/01/13 09:15:37;;;;;;;54.83;12.63;;;;;;;1.58;98.26;104089.50;5008471;28;20036;-74
2022/01/13 09:18:10;;;;;;;49.75;12.60;;;;;;;1.61;97.82;104090.47;5022304;28;20034;-74
2022/01/13 09:20:38;;;;;;;33.08;11.88;;;;;;;1.64;98.22;104076.22;5010655;28;20497;-74
2022/01/13 09:23:04;;;;;;;45.25;12.07;;;;;;;1.69;98.00;104096.88;5025983;28;20026;-74
2022/01/13 09:25:30;;;;;;;41.38;11.60;;;;;;;1.70;97.80;104084.34;5021690;28;20397;-74
2022/01/13 09:27:56;;;;;;;43.05;12.18;;;;;;;1.71;97.87;104084.38;5024171;28;20025;-74
2022/01/13 09:30:21;;;;;;;32.70;11.70;;;;;;;1.76;97.84;104095.19;5026149;28;20022;-75
2022/01/13 09:32:47;;;;;;;58.78;13.05;;;;;;;1.78;97.80;104088.97;5025051;28;20476;-74
2022/01/13 09:35:13;;;;;;;53.83;13.57;;;;;;;1.82;97.96;104086.31;5027543;28;20373;-74
2022/01/13 09:37:39;;;;;;;63.13;14.30;;;;;;;1.83;98.00;104086.38;5027412;28;20025;-74
2022/01/13 09:40:07;;;;;;;63.13;13.73;;;;;;;1.84;98.15;104096.22;5028047;28;20389;-74
2022/01/13 09:42:34;;;;;;;51.63;12.82;;;;;;;1.85;97.98;104083.69;5020037;28;20075;-74
2022/01/13 09:45:02;;;;;;;64.45;13.30;;;;;;;1.87;97.83;104088.22;5007898;28;20018;-74
2022/01/13 09:47:29;;;;;;;50.25;13.32;;;;;;;1.85;97.92;104086.38;5021431;28;20050;-74
2022/01/13 09:49:55;;;;;;;56.55;13.38;;;;;;;1.86;97.80;104088.19;5028019;28;20033;-75
2022/01/13 09:52:21;;;;;;;37.85;13.38;;;;;;;1.88;97.77;104090.03;5022619;28;20505;-73
2022/01/13 09:54:47;;;;;;;47.85;14.10;;;;;;;1.91;97.87;104097.19;5026532;28;20405;-74
2022/01/13 09:57:13;;;;;;;77.20;15.88;;;;;;;1.90;97.86;104087.34;5019147;28;20383;-75
2022/01/13 09:59:38;;;;;;;40.92;14.18;;;;;;;1.87;97.93;104081.94;5017861;28;20079;-74
2022/01/13 10:02:03;;;;;;;65.50;14.27;;;;;;;1.90;98.09;104082.88;5027025;28;20397;-74
2022/01/13 10:04:46;;;;;;;55.03;13.60;;;;;;;1.97;97.91;104081.22;5017466;28;20024;-74
2022/01/13 10:07:13;;;;;;;;;;;;;;;2.07;97.75;104093.00;5026357;28;20013;-75
2022/01/13 10:09:56;;;;;;;56.67;14.05;;;;;;;2.07;97.84;104095.69;5017894;28;19914;-74
2022/01/13 10:12:26;;;;;;;;;;;;;;;2.11;97.66;104092.16;5010629;28;20030;-75
2022/01/13 10:17:28;;;;;;;41.00;14.20;;;;;;;2.11;97.52;104089.47;5020405;28;20554;-74
2022/01/13 10:19:57;;;;;;;53.80;15.07;;;;;;;2.12;97.82;104092.19;5017141;28;20540;-75
2022/01/13 10:22:30;;;;;;;44.10;12.38;;;;;;;2.13;97.66;104085.91;5018333;28;20026;-75
2022/01/13 10:24:58;;;;;;;47.80;14.55;;;;;;;2.18;97.57;104088.69;5027015;28;20017;-75
2022/01/13 10:27:32;;;;;;;47.75;13.90;;;;;;;2.21;97.38;104084.25;5021608;28;20039;-75
2022/01/13 10:30:05;;;;;;;49.72;14.07;;;;;;;2.23;97.62;104086.97;5024878;28;20533;-74
2022/01/13 10:32:39;;;;;;;50.58;13.90;;;;;;;2.20;97.50;104074.41;5022945;28;20021;-75
2022/01/13 10:35:16;;;;;;;39.63;13.52;;;;;;;2.30;97.32;104084.41;5021699;28;20034;-74
2022/01/13 10:37:47;;;;;;;50.78;14.57;;;;;;;2.35;97.25;104094.31;5026940;28;20472;-74
2022/01/13 10:40:15;;;;;;;54.13;14.45;;;;;;;2.34;96.94;104093.41;5026800;28;20033;-74
2022/01/13 10:45:40;;;;;;;39.45;13.90;;;;;;;2.28;97.01;104091.53;5029913;28;20030;-74
2022/01/13 10:48:22;;;;;;;55.95;14.57;;;;;;;2.28;97.10;104091.53;5025066;28;20030;-74
2022/01/13 10:50:53;;;;;;;59.47;14.37;;;;;;;2.29;96.88;104090.66;5030617;28;20025;-74
2022/01/13 10:53:33;;;;;;;49.95;14.95;;;;;;;2.24;96.83;104091.47;5030562;28;20104;-75
2022/01/13 10:56:04;;;;;;;41.20;13.82;;;;;;;2.23;97.07;104079.78;5020854;28;20359;-74
2022/01/13 10:58:35;;;;;;;44.95;14.98;;;;;;;2.25;97.15;104078.06;5016438;28;20486;-74
2022/01/13 11:01:03;;;;;;;51.78;16.48;;;;;;;2.23;96.95;104074.41;5030022;28;20032;-75
2022/01/13 11:03:30;;;;;;;46.83;14.18;;;;;;;2.27;97.12;104073.59;5017579;28;20084;-77
2022/01/13 11:06:01;;;;;;;56.10;14.90;;;;;;;2.27;97.17;104068.22;5030099;28;20021;-78
2022/01/13 11:08:43;;;;;;;56.75;15.05;;;;;;;2.26;97.11;104063.72;5029764;28;20037;-76
2022/01/13 11:11:25;;;;;;;57.33;13.10;;;;;;;2.30;97.10;104057.53;5027923;28;20099;-74
2022/01/13 11:13:54;;;;;;;42.15;14.32;;;;;;;2.37;97.19;104058.50;5015944;28;20040;-75
2022/01/13 11:16:21;;;;;;;60.15;15.65;;;;;;;2.39;97.10;104055.84;5019015;28;20029;-74
2022/01/13 11:18:47;;;;;;;47.42;13.63;;;;;;;2.39;97.02;104050.47;5016103;28;20408;-74
2022/01/13 11:21:12;;;;;;;50.80;15.02;;;;;;;2.39;97.00;104051.38;5029716;28;20044;-75
2022/01/13 11:23:40;;;;;;;45.42;13.98;;;;;;;2.45;97.02;104050.56;5030054;28;20116;-76
2022/01/13 11:26:06;;;;;;;44.47;13.80;;;;;;;2.49;96.76;104052.41;5019272;28;20115;-75
2022/01/13 11:28:34;;;;;;;46.60;15.45;;;;;;;2.48;96.86;104045.22;5022181;28;20070;-75
2022/01/13 11:31:00;;;;;;;49.63;14.43;;;;;;;2.47;96.61;104040.72;5028897;28;20388;-75
2022/01/13 11:33:26;;;;;;;52.03;14.15;;;;;;;2.47;96.90;104038.03;5027166;28;20029;-75
2022/01/13 11:35:56;;;;;;;42.67;13.43;;;;;;;2.49;96.73;104041.66;5029791;28;20365;-74
2022/01/13 11:38:24;;;;;;;56.50;13.35;;;;;;;2.47;96.77;104041.66;5029725;28;20021;-75
2022/01/13 11:41:06;;;;;;;51.75;14.05;;;;;;;2.51;96.66;104043.47;5023143;28;20022;-75
2022/01/13 11:43:38;;;;;;;56.17;13.48;;;;;;;2.57;96.77;104048.03;5015296;28;20386;-75
2022/01/13 11:46:21;;;;;;;40.97;13.88;;;;;;;2.61;96.50;104044.50;5025466;28;20025;-74
2022/01/13 11:49:01;;;;;;;;;;;;;;;2.64;96.52;104043.63;5017081;28;20435;-74
2022/01/13 11:51:40;;;;;;;52.72;12.32;;;;;;;2.53;96.34;104036.34;5027762;28;19963;-74
2022/01/13 11:54:06;;;;;;;42.40;12.30;;;;;;;2.57;96.50;104039.97;5020844;28;20041;-75